Time;durP1;ratioP1;P1;durP2;ratioP2;P2;SDS_P1;SDS_P2;PMS_P1;PMS_P2;Temp;Humidity;BMP_temperature;BMP_pressure;BME280_temperature;BME280_humidity;BME280_pressure;Samples;Min_cycle;Max_cycle;Signal;HPM_P1;HPM_P2
2021/03/23 00:02:49;;;;;;;2.15;1.42;;;;;;;2.47;69.86;96407.81;5045126;28;20052;-57
2021/03/23 00:05:33;;;;;;;1.80;1.00;;;;;;;2.47;69.71;96396.88;5045099;28;20090;-58
2021/03/23 00:08:30;;;;;;;3.47;1.92;;;;;;;2.56;69.74;96411.31;5045220;28;20106;-58
2021/03/23 00:11:35;;;;;;;2.42;1.67;;;;;;;2.46;70.53;96411.69;5043128;28;20040;-57
2021/03/23 00:14:19;;;;;;;3.60;1.73;;;;;;;2.39;70.38;96412.22;5044829;28;20052;-59
2021/03/23 00:17:03;;;;;;;3.70;1.98;;;;;;;2.27;70.79;96392.25;5043892;28;20484;-59
2021/03/23 00:19:47;;;;;;;5.43;2.95;;;;;;;1.64;71.01;96286.06;5045085;28;20098;-58
2021/03/23 00:22:33;;;;;;;3.83;2.22;;;;;;;2.46;69.93;96419.91;5043700;28;20082;-58
2021/03/23 00:25:18;;;;;;;4.07;2.17;;;;;;;1.56;70.29;96285.75;5056768;28;20546;-60
2021/03/23 00:28:04;;;;;;;4.55;2.50;;;;;;;2.47;70.33;96418.75;5043069;28;20044;-58
2021/03/23 00:30:48;;;;;;;2.17;1.48;;;;;;;2.14;69.75;96371.44;5042718;28;20390;-57
2021/03/23 00:33:32;;;;;;;3.70;2.17;;;;;;;0.49;70.71;96109.38;5044169;28;20168;-59
2021/03/23 00:36:23;;;;;;;3.13;1.95;;;;;;;1.98;70.77;96384.09;5043774;28;20126;-58
2021/03/23 00:39:09;;;;;;;4.43;2.65;;;;;;;2.54;71.28;96419.84;5044687;28;20087;-58
2021/03/23 00:41:53;;;;;;;4.25;2.47;;;;;;;2.39;70.50;96416.88;5044048;28;20128;-60
2021/03/23 00:44:38;;;;;;;6.05;2.72;;;;;;;2.41;71.28;96431.03;5044226;28;20047;-59
2021/03/23 00:47:22;;;;;;;4.70;2.53;;;;;;;2.52;70.86;96426.75;5043122;28;20068;-59
2021/03/23 00:50:07;;;;;;;4.60;3.00;;;;;;;2.55;71.05;96426.09;5043133;28;20564;-59
2021/03/23 00:52:51;;;;;;;5.57;3.05;;;;;;;2.56;69.92;96433.19;5043883;28;20087;-59
2021/03/23 00:55:36;;;;;;;4.55;2.83;;;;;;;2.65;70.41;96426.50;5042445;28;20082;-59
2021/03/23 00:58:20;;;;;;;5.40;2.95;;;;;;;2.47;69.71;96407.81;5043860;28;20055;-57
2021/03/23 01:01:04;;;;;;;6.65;3.00;;;;;;;2.08;70.57;96318.97;5043657;28;20052;-59
2021/03/23 01:03:47;;;;;;;5.18;3.50;;;;;;;2.58;69.86;96389.88;5043781;28;20128;-60
2021/03/23 01:06:33;;;;;;;6.20;3.58;;;;;;;1.62;70.14;96255.56;5043030;28;20170;-59
2021/03/23 01:09:17;;;;;;;4.72;3.30;;;;;;;2.65;69.52;96442.09;5043514;28;20573;-59
2021/03/23 01:12:01;;;;;;;5.97;3.38;;;;;;;2.56;69.70;96400.38;5043536;28;20079;-58
2021/03/23 01:14:45;;;;;;;6.28;3.55;;;;;;;2.64;69.58;96419.41;5042623;28;20140;-60
2021/03/23 01:17:29;;;;;;;9.00;4.75;;;;;;;2.72;70.74;96436.88;5043201;28;20558;-61
2021/03/23 01:20:16;;;;;;;7.50;4.53;;;;;;;2.59;69.81;96432.50;5043404;28;20115;-58
2021/03/23 01:23:01;;;;;;;6.55;4.00;;;;;;;2.11;70.81;96344.81;5042541;28;20605;-58
2021/03/23 01:25:44;;;;;;;7.40;4.35;;;;;;;2.52;71.06;96421.28;5043563;28;20043;-58
2021/03/23 01:28:29;;;;;;;7.45;4.30;;;;;;;2.04;71.29;96363.66;5042512;28;20106;-58
2021/03/23 01:31:13;;;;;;;8.35;4.68;;;;;;;2.06;71.61;96345.00;5047149;28;20097;-60
2021/03/23 01:33:57;;;;;;;8.55;5.10;;;;;;;1.66;71.51;96286.53;5047925;28;20060;-58
2021/03/23 01:36:41;;;;;;;8.27;4.88;;;;;;;1.76;71.24;96283.38;5045749;28;20059;-57
2021/03/23 01:39:25;;;;;;;7.95;4.90;;;;;;;2.66;70.66;96432.75;5046719;28;20094;-58
2021/03/23 01:42:11;;;;;;;9.98;5.43;;;;;;;2.72;72.07;96426.75;5047162;28;20495;-59
2021/03/23 01:45:23;;;;;;;8.27;5.40;;;;;;;2.67;72.28;96434.38;5047250;28;20078;-60
2021/03/23 01:48:17;;;;;;;9.05;5.72;;;;;;;2.73;70.95;96422.09;5046935;28;20072;-60
2021/03/23 01:51:07;;;;;;;7.95;4.88;;;;;;;2.96;69.67;96439.72;5046657;28;20068;-58
2021/03/23 01:53:59;;;;;;;8.93;5.85;;;;;;;2.99;70.51;96442.59;5047569;28;20047;-60
2021/03/23 01:56:44;;;;;;;8.10;5.30;;;;;;;2.43;70.08;96393.25;5046611;28;20632;-58
2021/03/23 01:59:32;;;;;;;10.27;5.70;;;;;;;2.86;70.44;96440.94;5047771;28;20087;-59
2021/03/23 02:02:16;;;;;;;9.32;5.68;;;;;;;2.58;69.00;96387.16;5047166;28;20094;-59
2021/03/23 02:05:00;;;;;;;8.80;5.50;;;;;;;3.02;69.35;96446.56;5045660;28;20106;-57
2021/03/23 02:07:44;;;;;;;12.52;6.53;;;;;;;2.41;69.05;96351.78;5045677;28;20056;-58
2021/03/23 02:10:29;;;;;;;11.07;6.05;;;;;;;2.73;70.13;96465.84;5046522;28;20078;-58
2021/03/23 02:13:13;;;;;;;11.80;6.45;;;;;;;2.35;69.96;96364.06;5047021;28;20067;-59
2021/03/23 02:15:57;;;;;;;10.40;6.78;;;;;;;3.09;69.47;96449.56;5046766;28;20110;-58
2021/03/23 02:18:41;;;;;;;12.27;5.90;;;;;;;1.95;69.09;96294.63;5047015;28;20120;-58
2021/03/23 02:21:25;;;;;;;11.13;6.72;;;;;;;2.80;70.31;96427.78;5046585;28;20043;-58
2021/03/23 02:24:13;;;;;;;15.05;9.15;;;;;;;2.87;70.74;96460.88;5047054;28;20044;-58
2021/03/23 02:26:57;;;;;;;10.90;6.15;;;;;;;2.75;71.07;96458.88;5046348;28;20039;-58
2021/03/23 02:29:42;;;;;;;12.65;6.18;;;;;;;2.78;72.16;96457.44;5046795;28;20124;-57
2021/03/23 02:32:27;;;;;;;11.00;5.90;;;;;;;2.61;72.94;96468.47;5046388;28;20094;-58
2021/03/23 02:35:11;;;;;;;10.40;5.25;;;;;;;2.68;73.10;96468.75;5046038;28;20036;-60
2021/03/23 02:37:56;;;;;;;3.95;2.15;;;;;;;2.38;72.41;96475.41;5046466;28;20059;-59
2021/03/23 02:40:42;;;;;;;6.70;3.67;;;;;;;1.68;73.65;96401.59;5046414;28;20040;-57
2021/03/23 02:43:26;;;;;;;3.30;1.73;;;;;;;2.21;73.90;96475.53;5046919;28;20575;-57
2021/03/23 02:46:10;;;;;;;6.90;2.60;;;;;;;2.31;74.37;96475.94;5044497;28;20101;-58
2021/03/23 02:48:55;;;;;;;6.70;4.03;;;;;;;1.73;75.26;96426.78;5045841;28;20631;-60
2021/03/23 02:51:39;;;;;;;6.63;4.18;;;;;;;1.69;75.03;96411.41;5044687;28;20482;-58
2021/03/23 02:54:24;;;;;;;4.95;2.75;;;;;;;2.03;75.98;96485.75;5046389;28;20060;-58
2021/03/23 02:57:08;;;;;;;7.25;4.40;;;;;;;1.94;76.62;96481.47;5046006;28;20044;-59
2021/03/23 02:59:52;;;;;;;8.98;4.53;;;;;;;2.00;77.08;96491.06;5046128;28;20127;-58
2021/03/23 03:02:37;;;;;;;9.57;4.82;;;;;;;1.36;77.63;96395.66;5044575;28;20391;-60
2021/03/23 03:05:21;;;;;;;7.15;4.63;;;;;;;1.97;76.95;96497.19;5045272;28;20072;-58
2021/03/23 03:08:05;;;;;;;6.82;4.20;;;;;;;1.97;77.65;96503.47;5044473;28;20079;-58
2021/03/23 03:10:51;;;;;;;8.63;5.00;;;;;;;1.94;77.31;96504.13;5045165;28;20056;-57
2021/03/23 03:13:36;;;;;;;7.93;3.40;;;;;;;1.67;77.71;96481.91;5045673;28;20146;-58
2021/03/23 03:16:20;;;;;;;9.45;5.25;;;;;;;1.28;78.80;96442.09;5045862;28;20067;-57
2021/03/23 03:19:04;;;;;;;6.80;2.92;;;;;;;1.70;78.89;96508.53;5045835;28;20568;-57
2021/03/23 03:21:48;;;;;;;9.77;5.82;;;;;;;-1.16;79.00;96039.00;5045258;28;20086;-57
2021/03/23 03:24:33;;;;;;;8.95;4.03;;;;;;;1.77;79.65;96525.22;5044495;28;20655;-57
2021/03/23 03:27:17;;;;;;;12.57;6.60;;;;;;;1.38;80.46;96458.88;5044815;28;20555;-57
2021/03/23 03:30:01;;;;;;;10.45;6.10;;;;;;;1.90;79.22;96522.25;5045088;28;20120;-58
2021/03/23 03:32:45;;;;;;;9.80;6.18;;;;;;;1.81;79.95;96531.63;5045583;28;20103;-58
2021/03/23 03:35:33;;;;;;;11.98;6.10;;;;;;;1.71;80.75;96521.06;5045030;28;20465;-58
2021/03/23 03:38:22;;;;;;;11.82;6.85;;;;;;;1.13;81.15;96410.69;5044396;28;20079;-58
2021/03/23 03:41:06;;;;;;;8.85;4.72;;;;;;;1.20;79.71;96418.38;5045140;28;20063;-59
2021/03/23 03:43:50;;;;;;;13.20;7.05;;;;;;;1.86;80.02;96545.09;5045520;28;20043;-58
2021/03/23 03:46:34;;;;;;;14.95;8.38;;;;;;;-1.05;80.18;96075.56;5043077;28;20127;-57
2021/03/23 03:49:18;;;;;;;13.25;7.63;;;;;;;1.81;82.08;96534.34;5044807;28;20056;-58
2021/03/23 03:52:03;;;;;;;14.20;8.00;;;;;;;1.08;80.25;96481.75;5044068;28;20124;-58
2021/03/23 03:54:47;;;;;;;12.23;7.65;;;;;;;0.63;80.22;96417.84;5045452;28;20044;-58
2021/03/23 03:57:31;;;;;;;16.38;8.43;;;;;;;1.84;81.20;96544.63;5045514;28;20055;-59
2021/03/23 04:00:17;;;;;;;14.02;8.65;;;;;;;1.92;80.72;96543.78;5044243;28;20036;-59
2021/03/23 04:03:04;;;;;;;14.20;6.32;;;;;;;1.78;79.70;96545.91;5044613;28;20470;-57
2021/03/23 04:05:50;;;;;;;16.70;8.80;;;;;;;1.13;80.88;96445.31;5044244;28;20117;-57
2021/03/23 04:08:37;;;;;;;17.23;9.13;;;;;;;2.09;79.95;96549.16;5044539;28;20631;-58
2021/03/23 04:11:22;;;;;;;16.67;9.88;;;;;;;2.22;80.39;96548.16;5044249;28;20093;-58
2021/03/23 04:14:06;;;;;;;16.60;8.75;;;;;;;2.01;79.60;96563.69;5044974;28;20098;-57
2021/03/23 04:16:50;;;;;;;10.32;5.15;;;;;;;1.58;79.69;96555.63;5044431;28;20410;-58
2021/03/23 04:19:34;;;;;;;17.00;9.13;;;;;;;1.77;80.03;96563.44;5044730;28;20051;-58
2021/03/23 04:22:18;;;;;;;17.02;9.45;;;;;;;1.80;80.56;96579.16;5042634;28;20534;-60
2021/03/23 04:25:03;;;;;;;22.77;11.25;;;;;;;1.30;80.72;96514.28;4359827;28;10000999;-58
2021/03/23 04:27:48;;;;;;;15.05;7.22;;;;;;;0.72;81.66;96445.88;5044341;28;20048;-57
2021/03/23 04:30:32;;;;;;;14.15;6.05;;;;;;;1.60;82.33;96590.78;5043981;28;20118;-58
2021/03/23 04:33:18;;;;;;;19.98;10.38;;;;;;;1.77;82.90;96586.06;5044825;28;20087;-58
2021/03/23 04:36:07;;;;;;;9.88;5.25;;;;;;;1.66;82.92;96590.25;5044003;28;20175;-60
2021/03/23 04:38:52;;;;;;;10.60;5.22;;;;;;;1.52;83.05;96600.56;5044521;28;20048;-57
2021/03/23 04:41:37;;;;;;;14.60;7.05;;;;;;;1.54;83.53;96601.06;5043923;28;20082;-58
2021/03/23 04:44:21;;;;;;;13.48;6.78;;;;;;;1.04;84.17;96512.72;5044379;28;20067;-57
2021/03/23 04:47:06;;;;;;;16.83;8.35;;;;;;;0.85;83.49;96477.63;5042931;28;20056;-58
2021/03/23 04:49:50;;;;;;;11.90;5.78;;;;;;;1.51;83.68;96583.41;5043793;28;20094;-57
2021/03/23 04:52:34;;;;;;;15.73;8.15;;;;;;;1.22;84.71;96542.34;5044171;28;20420;-58
2021/03/23 04:55:18;;;;;;;16.35;8.15;;;;;;;0.41;84.33;96401.66;5043195;28;20479;-60
2021/03/23 04:58:02;;;;;;;13.05;6.90;;;;;;;1.54;84.40;96596.41;5043961;28;20202;-57
2021/03/23 05:00:46;;;;;;;13.27;6.43;;;;;;;0.87;84.78;96518.97;5043451;28;20054;-59
2021/03/23 05:03:34;;;;;;;11.20;6.35;;;;;;;1.31;83.95;96583.28;5043836;28;20078;-61
2021/03/23 05:06:17;;;;;;;9.43;3.95;;;;;;;0.55;84.04;96473.13;5043676;28;20098;-58
2021/03/23 05:09:02;;;;;;;14.05;6.30;;;;;;;1.53;84.94;96613.09;5042356;28;20182;-58
2021/03/23 05:11:46;;;;;;;11.95;5.03;;;;;;;1.61;83.76;96603.28;5041948;28;20044;-59
2021/03/23 05:14:30;;;;;;;11.50;6.57;;;;;;;1.61;84.75;96614.22;5043576;28;20527;-60
2021/03/23 05:17:14;;;;;;;13.75;7.07;;;;;;;1.44;85.20;96596.72;5043812;28;20581;-59
2021/03/23 05:19:59;;;;;;;10.45;4.90;;;;;;;1.50;84.78;96620.00;5042267;28;20155;-59
2021/03/23 05:22:42;;;;;;;10.60;6.30;;;;;;;1.50;84.99;96598.16;5043961;28;20139;-58
2021/03/23 05:25:27;;;;;;;10.70;4.90;;;;;;;1.60;85.01;96626.25;5041921;28;20083;-59
2021/03/23 05:28:12;;;;;;;12.10;6.72;;;;;;;1.43;87.25;96619.69;5042359;28;20098;-60
2021/03/23 05:30:57;;;;;;;11.48;6.25;;;;;;;1.56;87.65;96624.16;5043086;28;20055;-58
2021/03/23 05:33:41;;;;;;;10.13;5.88;;;;;;;1.63;86.95;96618.22;5043704;28;20118;-59
2021/03/23 05:36:26;;;;;;;12.80;6.93;;;;;;;1.91;86.44;96618.66;5043516;28;20094;-61
2021/03/23 05:39:12;;;;;;;10.10;4.18;;;;;;;1.64;85.41;96613.56;5042753;28;20462;-59
2021/03/23 05:42:13;;;;;;;11.88;6.05;;;;;;;0.96;84.11;96465.25;5043635;28;20088;-60
2021/03/23 05:45:40;;;;;;;11.52;4.53;;;;;;;1.15;84.49;96520.25;5043208;28;20151;-59
2021/03/23 05:48:27;;;;;;;10.55;6.28;;;;;;;1.10;83.99;96495.88;5041534;28;20055;-58
2021/03/23 05:51:25;;;;;;;12.10;6.82;;;;;;;1.87;83.72;96634.06;5042795;28;20649;-59
2021/03/23 05:54:24;;;;;;;5.80;3.33;;;;;;;1.56;84.37;96635.06;5042390;28;20046;-59
2021/03/23 05:57:29;;;;;;;11.68;6.25;;;;;;;1.55;85.07;96649.84;5041877;28;20121;-59
2021/03/23 06:00:23;;;;;;;13.25;6.47;;;;;;;1.55;85.44;96633.47;5055553;28;20095;-59
2021/03/23 06:03:27;;;;;;;13.15;6.38;;;;;;;1.60;84.58;96634.44;5041883;28;20514;-59
2021/03/23 06:06:30;;;;;;;8.75;5.35;;;;;;;1.62;82.49;96634.91;5049845;28;20520;-60
2021/03/23 06:09:16;;;;;;;11.48;6.18;;;;;;;1.66;82.89;96660.44;5048724;28;20115;-60
2021/03/23 06:12:03;;;;;;;10.23;4.57;;;;;;;1.77;80.29;96639.88;5053845;28;20043;-59
2021/03/23 06:15:09;;;;;;;8.23;4.85;;;;;;;0.52;79.68;96432.88;5043385;28;20043;-59
2021/03/23 06:17:53;;;;;;;10.48;5.50;;;;;;;2.14;79.42;96628.19;5050849;28;20067;-60
2021/03/23 06:20:45;;;;;;;10.85;5.45;;;;;;;2.12;79.38;96597.69;5048550;28;20335;-57
2021/03/23 06:23:52;;;;;;;11.13;5.70;;;;;;;2.29;81.20;96635.88;5062399;28;20052;-59
2021/03/23 06:26:54;;;;;;;13.38;7.45;;;;;;;1.60;82.21;96568.94;5052613;28;20393;-60
2021/03/23 06:29:59;;;;;;;15.52;8.88;;;;;;;2.19;82.00;96641.69;5052077;28;20110;-62
2021/03/23 06:32:51;;;;;;;14.68;8.43;;;;;;;2.44;80.51;96640.78;5045138;28;20125;-61
2021/03/23 06:35:41;;;;;;;10.50;5.78;;;;;;;0.93;80.51;96452.25;5064697;28;20414;-63
2021/03/23 06:38:34;;;;;;;7.93;4.82;;;;;;;1.98;80.59;96646.25;5050874;28;20527;-58
2021/03/23 06:41:26;;;;;;;10.10;4.28;;;;;;;2.19;78.93;96625.31;5046550;28;20128;-58
2021/03/23 06:44:13;;;;;;;4.57;2.08;;;;;;;1.98;77.28;96654.44;5064785;28;20043;-60
2021/03/23 06:46:57;;;;;;;6.22;3.00;;;;;;;2.08;77.69;96656.81;5056846;28;20102;-57
2021/03/23 06:49:41;;;;;;;4.00;2.30;;;;;;;0.84;78.33;96481.44;5053320;28;20140;-63
2021/03/23 06:52:25;;;;;;;6.22;3.20;;;;;;;2.13;78.65;96664.84;5048202;28;20043;-56
2021/03/23 06:55:22;;;;;;;6.85;3.22;;;;;;;2.16;78.84;96664.19;5051788;28;20044;-56
2021/03/23 06:58:22;;;;;;;4.68;2.55;;;;;;;2.47;77.08;96670.19;5053156;28;20051;-60
2021/03/23 07:01:09;;;;;;;6.45;2.65;;;;;;;2.48;76.11;96666.34;5049896;28;20121;-62
2021/03/23 07:03:55;;;;;;;7.47;4.22;;;;;;;2.26;76.75;96674.78;5053001;28;20056;-60
2021/03/23 07:06:39;;;;;;;5.10;2.83;;;;;;;2.22;76.74;96685.56;5044520;28;20044;-60
2021/03/23 07:09:23;;;;;;;6.95;3.42;;;;;;;2.18;77.36;96659.22;5058883;28;20047;-58
2021/03/23 07:12:08;;;;;;;6.20;3.78;;;;;;;2.40;77.83;96669.91;5063428;28;20043;-58
2021/03/23 07:15:09;;;;;;;7.43;3.95;;;;;;;2.22;78.69;96668.34;5059449;28;20105;-58
2021/03/23 07:18:11;;;;;;;8.55;4.05;;;;;;;2.19;78.33;96663.53;5063365;28;20067;-60
2021/03/23 07:21:03;;;;;;;5.82;3.30;;;;;;;2.17;78.62;96668.53;5045224;28;20124;-58
2021/03/23 07:23:47;;;;;;;6.35;3.40;;;;;;;2.02;78.13;96674.53;5048913;28;20039;-58
2021/03/23 07:26:39;;;;;;;8.52;4.40;;;;;;;1.09;78.42;96564.34;5056136;28;20101;-58
2021/03/23 07:29:34;;;;;;;10.13;4.93;;;;;;;1.27;78.80;96599.47;5054149;28;20407;-55
2021/03/23 07:32:32;;;;;;;3.08;1.75;;;;;;;1.15;78.09;96574.78;5044859;28;20565;-61
2021/03/23 07:35:25;;;;;;;13.82;6.22;;;;;;;2.18;79.77;96672.88;5049369;28;20048;-60
2021/03/23 07:38:12;;;;;;;9.70;4.68;;;;;;;2.29;79.01;96674.13;5056586;28;20047;-59
2021/03/23 07:40:59;;;;;;;8.02;4.13;;;;;;;2.22;79.35;96671.09;5047654;28;20106;-59
2021/03/23 07:43:52;;;;;;;12.70;5.80;;;;;;;2.39;78.48;96680.03;5051634;28;20148;-59
2021/03/23 07:46:51;;;;;;;11.07;5.32;;;;;;;2.48;75.53;96792.06;5042998;28;20765;-60
2021/03/23 07:49:43;;;;;;;8.48;4.05;;;;;;;2.52;72.35;96672.75;5045350;28;20066;-61
2021/03/23 07:52:36;;;;;;;7.22;4.15;;;;;;;2.67;72.90;96655.81;5045097;28;20426;-60
2021/03/23 07:55:25;;;;;;;8.23;5.40;;;;;;;2.98;69.63;96670.78;5044974;28;20411;-59
2021/03/23 07:58:40;;;;;;;10.63;5.60;;;;;;;3.65;66.75;96667.84;5051173;28;20064;-60
2021/03/23 08:01:42;;;;;;;11.50;6.18;;;;;;;3.65;62.40;96667.84;5050222;28;20048;-61
2021/03/23 08:05:02;;;;;;;11.93;5.97;;;;;;;3.66;60.24;96625.66;5051434;28;20067;-63
2021/03/23 08:08:06;;;;;;;13.00;5.63;;;;;;;2.95;60.18;96572.16;5052085;28;20530;-62
2021/03/23 08:11:05;;;;;;;;;;;;;;;3.44;60.50;96660.78;5048859;28;20131;-60
2021/03/23 08:14:44;;;;;;;4.43;2.22;;;;;;;2.98;60.85;96665.28;5052281;28;19935;-60
2021/03/23 08:17:50;;;;;;;10.00;5.30;;;;;;;3.85;59.96;96660.75;4989350;28;20481;-59
2021/03/23 08:20:56;;;;;;;9.20;3.55;;;;;;;3.43;59.09;96665.44;5054619;28;20550;-61
2021/03/23 08:24:05;;;;;;;8.65;4.75;;;;;;;3.62;58.94;96668.53;5051575;28;20047;-62
2021/03/23 08:27:25;;;;;;;10.38;5.45;;;;;;;4.20;57.82;96662.84;5051554;28;20055;-60
2021/03/23 08:30:34;;;;;;;9.35;4.72;;;;;;;4.37;56.58;96662.63;5051242;28;20052;-61
2021/03/23 08:33:33;;;;;;;6.90;3.47;;;;;;;3.99;55.79;96651.13;5051517;28;20044;-57
2021/03/23 08:36:26;;;;;;;11.05;4.90;;;;;;;3.97;55.01;96647.91;5047218;28;20043;-58
2021/03/23 08:39:20;;;;;;;7.20;4.32;;;;;;;4.61;54.08;96646.22;5049079;28;20106;-62
2021/03/23 08:42:12;;;;;;;14.68;8.38;;;;;;;4.07;55.13;96521.44;5052143;28;20647;-58
2021/03/23 08:45:27;;;;;;;7.38;3.10;;;;;;;4.14;55.56;96642.25;5050626;28;20105;-58
2021/03/23 08:48:36;;;;;;;9.75;5.30;;;;;;;4.37;56.09;96621.50;5049407;28;20625;-61
2021/03/23 08:51:24;;;;;;;6.28;3.67;;;;;;;4.35;56.36;96650.41;5051179;28;20047;-60
2021/03/23 08:54:08;;;;;;;8.63;4.47;;;;;;;4.04;55.82;96587.88;5051652;28;20059;-60
2021/03/23 08:56:55;;;;;;;7.50;3.38;;;;;;;4.24;54.47;96633.59;5048623;28;20072;-62
2021/03/23 08:59:40;;;;;;;8.85;5.13;;;;;;;3.84;56.27;96605.16;5050047;28;20438;-66
2021/03/23 09:02:27;;;;;;;6.97;3.88;;;;;;;3.38;55.83;96632.81;5049302;28;20363;-58
2021/03/23 09:05:50;;;;;;;4.53;2.85;;;;;;;3.44;57.51;96626.00;5050688;28;20426;-58
2021/03/23 09:08:40;;;;;;;5.07;2.70;;;;;;;3.77;57.54;96621.38;5049420;28;20543;-62
2021/03/23 09:11:52;;;;;;;6.22;3.25;;;;;;;4.32;54.72;96637.38;5048503;28;20226;-60
2021/03/23 09:15:01;;;;;;;8.75;3.67;;;;;;;4.76;52.12;96619.25;5048307;28;20086;-61
2021/03/23 09:18:00;;;;;;;4.57;2.08;;;;;;;4.19;50.16;96589.94;5048664;28;20043;-58
2021/03/23 09:20:44;;;;;;;4.72;2.60;;;;;;;4.53;48.92;96616.97;5048585;28;20055;-63
2021/03/23 09:23:28;;;;;;;4.35;2.60;;;;;;;4.06;52.40;96604.75;5051388;28;20098;-63
2021/03/23 09:26:31;;;;;;;6.63;3.65;;;;;;;4.37;50.97;96609.75;5049175;28;20251;-61
2021/03/23 09:29:24;;;;;;;5.32;3.28;;;;;;;4.50;50.89;96606.66;5048855;28;20525;-60
2021/03/23 09:32:13;;;;;;;3.78;3.05;;;;;;;4.35;51.13;96615.56;5049599;28;20044;-62
2021/03/23 09:38:30;;;;;;;5.95;3.67;;;;;;;4.24;55.49;96599.88;5048960;28;20047;-62
2021/03/23 09:41:21;;;;;;;6.50;3.42;;;;;;;4.41;55.11;96607.94;5049562;28;20040;-63
2021/03/23 09:44:05;;;;;;;9.95;5.18;;;;;;;4.46;54.31;96588.50;5050854;28;20059;-62
2021/03/23 09:46:56;;;;;;;6.57;3.03;;;;;;;4.13;55.64;96585.84;5049909;28;20100;-58
2021/03/23 09:49:48;;;;;;;10.05;3.97;;;;;;;4.17;56.29;96584.00;5051758;28;20203;-60
2021/03/23 09:52:34;;;;;;;7.45;3.90;;;;;;;4.00;56.48;96569.72;5053623;28;20041;-62
2021/03/23 09:55:26;;;;;;;7.68;3.22;;;;;;;3.83;54.14;96543.31;5054448;28;20117;-65
2021/03/23 09:58:22;;;;;;;4.22;1.92;;;;;;;3.96;56.12;96597.00;5054036;28;20051;-60
2021/03/23 10:01:21;;;;;;;6.00;3.20;;;;;;;2.95;56.54;96427.19;5052337;28;20458;-60
2021/03/23 10:04:05;;;;;;;4.78;3.03;;;;;;;2.90;54.95;96441.06;5052619;28;20123;-62
2021/03/23 10:06:49;;;;;;;4.40;2.78;;;;;;;3.65;55.50;96557.53;5053237;28;20032;-62
2021/03/23 10:09:37;;;;;;;6.15;3.47;;;;;;;4.35;54.91;96686.03;5051283;28;20391;-59
2021/03/23 10:12:31;;;;;;;5.95;3.17;;;;;;;0.62;53.87;96059.31;5052414;28;20043;-58
2021/03/23 10:15:18;;;;;;;7.40;4.18;;;;;;;4.15;58.35;96593.72;5054199;28;20059;-59
2021/03/23 10:18:17;;;;;;;6.22;3.20;;;;;;;4.02;57.66;96598.38;5053209;28;20052;-60
2021/03/23 10:21:10;;;;;;;6.13;3.05;;;;;;;0.76;56.68;96108.13;5053243;28;20044;-61
2021/03/23 10:24:01;;;;;;;5.93;3.28;;;;;;;1.87;56.10;96378.22;5053804;28;20039;-57
2021/03/23 10:26:51;;;;;;;6.32;3.38;;;;;;;4.52;57.41;96582.44;5052633;28;20098;-59
2021/03/23 10:29:35;;;;;;;4.28;2.15;;;;;;;3.73;56.36;96532.78;5054598;28;20102;-56
2021/03/23 10:32:30;;;;;;;6.68;2.90;;;;;;;4.43;56.51;96583.69;5052431;28;20107;-60
2021/03/23 10:35:23;;;;;;;5.28;2.40;;;;;;;4.51;54.05;96578.09;5052844;28;20052;-61
2021/03/23 10:38:19;;;;;;;7.72;4.70;;;;;;;4.78;54.71;96611.47;5053987;28;20113;-63
2021/03/23 10:41:16;;;;;;;8.30;4.90;;;;;;;4.71;55.15;96581.06;5053966;28;20059;-64
2021/03/23 10:44:19;;;;;;;5.05;3.38;;;;;;;4.74;55.92;96580.38;5051844;28;20098;-63
2021/03/23 10:47:03;;;;;;;6.18;3.08;;;;;;;3.35;55.45;96394.56;5053158;28;20134;-62
2021/03/23 10:49:47;;;;;;;6.95;3.60;;;;;;;3.29;54.77;96379.53;5052980;28;20132;-58
2021/03/23 10:52:32;;;;;;;6.25;3.60;;;;;;;4.69;52.15;96582.19;5052156;28;20075;-62
2021/03/23 10:55:19;;;;;;;8.38;3.28;;;;;;;4.49;53.93;96576.84;5050205;28;20043;-62
2021/03/23 10:58:22;;;;;;;6.22;3.80;;;;;;;0.65;53.28;95989.75;5051169;28;20543;-60
2021/03/23 11:01:16;;;;;;;4.10;2.80;;;;;;;4.45;53.48;96593.19;5051969;28;20106;-60
2021/03/23 11:04:15;;;;;;;5.90;3.63;;;;;;;4.75;54.79;96579.22;5054367;28;20593;-60
2021/03/23 11:08:02;;;;;;;6.60;3.47;;;;;;;4.06;52.14;96470.50;5052619;28;20079;-61
2021/03/23 11:10:48;;;;;;;6.55;4.10;;;;;;;5.13;52.29;96568.66;5012270;28;20045;-60
2021/03/23 11:13:32;;;;;;;6.65;3.75;;;;;;;5.42;52.58;96582.09;5052401;28;20043;-60
2021/03/23 11:16:18;;;;;;;7.03;4.40;;;;;;;5.19;52.77;96567.25;5050971;28;20593;-61
2021/03/23 11:19:09;;;;;;;5.18;3.08;;;;;;;4.97;50.88;96521.13;5053143;28;20103;-60
2021/03/23 11:21:58;;;;;;;5.25;2.65;;;;;;;5.17;52.66;96551.13;5051844;28;20443;-62
2021/03/23 11:24:42;;;;;;;6.95;3.92;;;;;;;5.53;52.44;96583.19;5053258;28;20048;-58
2021/03/23 11:27:27;;;;;;;6.47;4.25;;;;;;;3.09;53.32;96179.56;5052917;28;20094;-62
2021/03/23 11:30:12;;;;;;;8.73;4.65;;;;;;;5.60;53.66;96581.44;5056888;28;20064;-62
2021/03/23 11:32:56;;;;;;;6.63;4.65;;;;;;;3.60;54.61;96377.84;5052468;28;20155;-60
2021/03/23 11:35:50;;;;;;;8.05;5.00;;;;;;;4.94;54.15;96483.41;5051725;28;20093;-61
2021/03/23 11:38:34;;;;;;;6.13;3.95;;;;;;;3.03;53.62;96169.19;5053121;28;20159;-62
2021/03/23 11:41:36;;;;;;;6.13;3.70;;;;;;;5.70;53.59;96556.22;5051564;28;20071;-61
2021/03/23 11:44:24;;;;;;;7.07;3.42;;;;;;;5.57;52.46;96562.09;5052325;28;20465;-60
2021/03/23 11:47:43;;;;;;;5.30;3.63;;;;;;;5.45;52.80;96559.41;5049368;28;20403;-63
2021/03/23 11:50:31;;;;;;;8.13;4.40;;;;;;;5.53;54.38;96572.19;5051709;28;20566;-59
2021/03/23 11:53:16;;;;;;;6.97;4.40;;;;;;;5.38;54.11;96539.97;5049281;28;20074;-58
2021/03/23 11:56:01;;;;;;;6.95;4.38;;;;;;;5.24;53.35;96506.63;5051795;28;20343;-59
2021/03/23 11:58:45;;;;;;;7.40;3.58;;;;;;;5.44;53.32;96557.78;5051665;28;20063;-61
2021/03/23 12:01:30;;;;;;;4.40;2.00;;;;;;;4.91;53.15;96489.59;5064197;28;20040;-60
2021/03/23 12:04:15;;;;;;;7.82;4.20;;;;;;;4.50;53.44;96427.63;5048512;28;20585;-60
2021/03/23 12:07:22;;;;;;;6.07;3.88;;;;;;;4.94;53.51;96434.00;5049975;28;20043;-61
2021/03/23 12:10:21;;;;;;;8.20;4.00;;;;;;;6.25;51.37;96544.34;5050736;28;20106;-61
2021/03/23 12:13:43;;;;;;;5.57;4.03;;;;;;;5.85;52.65;96541.72;5049956;28;20059;-64
2021/03/23 12:16:46;;;;;;;5.93;3.65;;;;;;;5.54;51.52;96546.31;5048547;28;20062;-62
2021/03/23 12:19:48;;;;;;;7.70;3.73;;;;;;;5.85;52.79;96529.94;5049199;28;20052;-63
2021/03/23 12:22:32;;;;;;;6.88;3.45;;;;;;;5.32;52.89;96494.69;5050128;28;20792;-59
2021/03/23 12:25:19;;;;;;;5.93;3.88;;;;;;;5.61;52.21;96519.06;5049898;28;20538;-60
2021/03/23 12:28:03;;;;;;;7.80;3.65;;;;;;;5.29;52.57;96435.00;5051257;28;20056;-60
2021/03/23 12:30:49;;;;;;;4.07;2.67;;;;;;;5.26;51.10;96468.66;5049074;28;20118;-57
2021/03/23 12:33:33;;;;;;;6.47;2.70;;;;;;;5.72;52.46;96518.19;5051254;28;20067;-59
2021/03/23 12:36:17;;;;;;;3.10;2.00;;;;;;;5.82;50.69;96494.91;5049070;28;20174;-59
2021/03/23 12:39:03;;;;;;;6.05;2.15;;;;;;;5.73;50.47;96444.81;5049947;28;20093;-58
2021/03/23 12:41:48;;;;;;;4.45;3.00;;;;;;;5.63;50.11;96426.91;5050414;28;20067;-57
2021/03/23 12:44:33;;;;;;;6.97;3.67;;;;;;;6.10;49.72;96495.66;5051066;28;20047;-58
2021/03/23 12:47:17;;;;;;;5.78;3.85;;;;;;;5.60;49.70;96374.59;5047959;28;20064;-58
2021/03/23 12:50:03;;;;;;;4.28;3.70;;;;;;;6.77;48.68;96503.56;5048742;28;20126;-60
2021/03/23 12:52:50;;;;;;;4.00;2.42;;;;;;;5.60;48.67;96511.94;5050640;28;20556;-58
2021/03/23 12:55:34;;;;;;;6.28;3.90;;;;;;;5.81;50.16;96501.53;5049361;28;20044;-59
2021/03/23 12:58:22;;;;;;;11.50;4.40;;;;;;;5.31;49.62;96410.75;5048060;28;20112;-57
2021/03/23 13:01:06;;;;;;;4.70;2.70;;;;;;;5.72;50.21;96503.66;5048949;28;20120;-58
2021/03/23 13:03:50;;;;;;;4.90;3.15;;;;;;;5.17;49.00;96426.84;5050814;28;20055;-57
2021/03/23 13:06:34;;;;;;;4.93;2.78;;;;;;;5.82;48.47;96503.97;5047940;28;20430;-60
2021/03/23 13:09:18;;;;;;;5.00;3.47;;;;;;;5.21;48.90;96472.44;5049327;28;20094;-59
2021/03/23 13:12:03;;;;;;;2.50;1.45;;;;;;;3.98;47.96;96260.44;5050235;28;20083;-58
2021/03/23 13:14:47;;;;;;;4.85;3.20;;;;;;;5.83;49.02;96502.81;5048717;28;20051;-58
2021/03/23 13:17:31;;;;;;;4.75;2.38;;;;;;;5.44;48.34;96487.19;5051523;28;20526;-57
2021/03/23 13:20:17;;;;;;;3.63;2.40;;;;;;;5.39;48.60;96450.97;5050268;28;20106;-57
2021/03/23 13:23:02;;;;;;;3.17;2.20;;;;;;;5.19;47.89;96545.31;5051237;28;20043;-58
2021/03/23 13:25:51;;;;;;;2.60;1.70;;;;;;;5.10;49.42;96498.00;5047532;28;20148;-57
2021/03/23 13:28:48;;;;;;;3.80;2.53;;;;;;;5.62;50.22;96521.47;5051198;28;20559;-58
2021/03/23 13:31:39;;;;;;;2.83;2.10;;;;;;;5.51;48.27;96508.56;5049099;28;20142;-59